sensor_id;sensor_type;location;lat;lon;timestamp;pressure;altitude;pressure_sealevel;temperature;humidity
3082;BME280;1551;51.046;7.010;2022-08-19T00:00:57;100625.78;;;21.97;68.22
3082;BME280;1551;51.046;7.010;2022-08-19T00:03:47;100625.47;;;21.71;69.11
3082;BME280;1551;51.046;7.010;2022-08-19T00:06:38;100623.31;;;21.64;69.33
3082;BME280;1551;51.046;7.010;2022-08-19T00:09:28;100616.59;;;21.60;69.22
3082;BME280;1551;51.046;7.010;2022-08-19T00:12:17;100625.22;;;21.76;69.73
3082;BME280;1551;51.046;7.010;2022-08-19T00:15:12;100638.06;;;21.79;69.53
3082;BME280;1551;51.046;7.010;2022-08-19T00:18:02;100634.13;;;21.72;69.53
3082;BME280;1551;51.046;7.010;2022-08-19T00:20:51;100620.19;;;21.73;70.08
3082;BME280;1551;51.046;7.010;2022-08-19T00:23:41;100622.06;;;21.71;70.16
3082;BME280;1551;51.046;7.010;2022-08-19T00:26:31;100623.78;;;21.86;69.43
3082;BME280;1551;51.046;7.010;2022-08-19T00:29:22;100628.47;;;21.95;69.55
3082;BME280;1551;51.046;7.010;2022-08-19T00:32:11;100632.03;;;21.94;69.39
3082;BME280;1551;51.046;7.010;2022-08-19T00:35:01;100633.03;;;21.76;69.56
3082;BME280;1551;51.046;7.010;2022-08-19T00:37:50;100628.78;;;21.44;70.70
3082;BME280;1551;51.046;7.010;2022-08-19T00:40:40;100625.00;;;21.34;70.88
3082;BME280;1551;51.046;7.010;2022-08-19T00:43:30;100631.31;;;21.30;71.43
3082;BME280;1551;51.046;7.010;2022-08-19T00:46:20;100614.28;;;21.40;71.94
3082;BME280;1551;51.046;7.010;2022-08-19T00:49:12;100630.06;;;21.37;71.32
3082;BME280;1551;51.046;7.010;2022-08-19T00:52:10;100612.84;;;21.03;71.92
3082;BME280;1551;51.046;7.010;2022-08-19T00:55:02;100619.94;;;20.99;72.80
3082;BME280;1551;51.046;7.010;2022-08-19T00:57:58;100620.44;;;21.07;72.62
3082;BME280;1551;51.046;7.010;2022-08-19T01:00:48;100620.97;;;21.12;72.39
3082;BME280;1551;51.046;7.010;2022-08-19T01:03:37;100624.69;;;21.08;72.24
3082;BME280;1551;51.046;7.010;2022-08-19T01:06:26;100618.50;;;20.94;72.96
3082;BME280;1551;51.046;7.010;2022-08-19T01:09:15;100623.19;;;20.72;73.17
3082;BME280;1551;51.046;7.010;2022-08-19T01:12:05;100622.56;;;20.51;73.26
3082;BME280;1551;51.046;7.010;2022-08-19T01:14:55;100625.78;;;20.56;74.22
3082;BME280;1551;51.046;7.010;2022-08-19T01:17:44;100624.59;;;20.62;74.07
3082;BME280;1551;51.046;7.010;2022-08-19T01:20:34;100614.75;;;20.99;73.81
3082;BME280;1551;51.046;7.010;2022-08-19T01:23:23;100624.94;;;21.19;72.59
3082;BME280;1551;51.046;7.010;2022-08-19T01:26:31;100626.53;;;21.53;71.02
3082;BME280;1551;51.046;7.010;2022-08-19T01:29:26;100623.59;;;21.44;70.42
3082;BME280;1551;51.046;7.010;2022-08-19T01:32:16;100615.28;;;21.06;71.82
3082;BME280;1551;51.046;7.010;2022-08-19T01:35:06;100614.84;;;20.98;71.51
3082;BME280;1551;51.046;7.010;2022-08-19T01:37:59;100612.25;;;20.98;71.86
3082;BME280;1551;51.046;7.010;2022-08-19T01:40:48;100607.78;;;21.00;71.70
3082;BME280;1551;51.046;7.010;2022-08-19T01:43:38;100612.53;;;20.76;72.14
3082;BME280;1551;51.046;7.010;2022-08-19T01:46:27;100607.84;;;20.34;72.89
3082;BME280;1551;51.046;7.010;2022-08-19T01:49:21;100611.97;;;20.54;74.60
3082;BME280;1551;51.046;7.010;2022-08-19T01:52:11;100600.53;;;20.58;72.91
3082;BME280;1551;51.046;7.010;2022-08-19T01:55:00;100590.72;;;20.63;72.80
3082;BME280;1551;51.046;7.010;2022-08-19T01:57:55;100595.75;;;21.14;72.58
3082;BME280;1551;51.046;7.010;2022-08-19T02:00:46;100600.63;;;21.50;70.70
3082;BME280;1551;51.046;7.010;2022-08-19T02:03:35;100590.59;;;21.74;69.28
3082;BME280;1551;51.046;7.010;2022-08-19T02:06:24;100611.38;;;21.60;68.94
3082;BME280;1551;51.046;7.010;2022-08-19T02:09:13;100607.31;;;21.24;69.33
3082;BME280;1551;51.046;7.010;2022-08-19T02:12:04;100608.22;;;21.08;70.33
3082;BME280;1551;51.046;7.010;2022-08-19T02:14:53;100620.59;;;21.04;70.69
3082;BME280;1551;51.046;7.010;2022-08-19T02:17:42;100620.06;;;20.98;70.81
3082;BME280;1551;51.046;7.010;2022-08-19T02:20:31;100589.72;;;20.81;70.51
3082;BME280;1551;51.046;7.010;2022-08-19T02:23:20;100603.66;;;20.80;70.42
3082;BME280;1551;51.046;7.010;2022-08-19T02:26:09;100609.88;;;20.93;70.97
3082;BME280;1551;51.046;7.010;2022-08-19T02:28:59;100602.50;;;21.01;70.17
3082;BME280;1551;51.046;7.010;2022-08-19T02:31:48;100611.91;;;20.88;71.69
3082;BME280;1551;51.046;7.010;2022-08-19T02:34:37;100616.03;;;21.08;70.26
3082;BME280;1551;51.046;7.010;2022-08-19T02:37:27;100615.13;;;21.09;70.78
3082;BME280;1551;51.046;7.010;2022-08-19T02:40:35;100620.81;;;21.31;69.60
3082;BME280;1551;51.046;7.010;2022-08-19T02:43:25;100628.22;;;21.39;69.46
3082;BME280;1551;51.046;7.010;2022-08-19T02:46:24;100624.88;;;21.66;68.24
3082;BME280;1551;51.046;7.010;2022-08-19T02:49:14;100623.19;;;21.81;67.68
3082;BME280;1551;51.046;7.010;2022-08-19T02:52:05;100620.47;;;21.68;66.85
3082;BME280;1551;51.046;7.010;2022-08-19T02:54:54;100602.91;;;20.94;67.99
3082;BME280;1551;51.046;7.010;2022-08-19T02:57:46;100622.22;;;20.57;70.74
3082;BME280;1551;51.046;7.010;2022-08-19T03:00:41;100624.63;;;20.44;71.45
3082;BME280;1551;51.046;7.010;2022-08-19T03:03:31;100603.00;;;20.10;72.15
3082;BME280;1551;51.046;7.010;2022-08-19T03:06:22;100629.91;;;19.92;73.08
3082;BME280;1551;51.046;7.010;2022-08-19T03:09:12;100621.28;;;20.08;74.01
3082;BME280;1551;51.046;7.010;2022-08-19T03:12:03;100614.56;;;20.87;72.06
3082;BME280;1551;51.046;7.010;2022-08-19T03:14:52;100618.16;;;21.33;69.80
3082;BME280;1551;51.046;7.010;2022-08-19T03:17:41;100631.31;;;21.45;69.10
3082;BME280;1551;51.046;7.010;2022-08-19T03:20:30;100621.84;;;21.29;68.08
3082;BME280;1551;51.046;7.010;2022-08-19T03:23:20;100624.25;;;21.32;69.13
3082;BME280;1551;51.046;7.010;2022-08-19T03:26:10;100632.91;;;21.48;68.10
3082;BME280;1551;51.046;7.010;2022-08-19T03:29:04;100632.94;;;21.16;68.51
3082;BME280;1551;51.046;7.010;2022-08-19T03:31:53;100640.00;;;21.14;69.62
3082;BME280;1551;51.046;7.010;2022-08-19T03:34:43;100646.19;;;21.28;68.33
3082;BME280;1551;51.046;7.010;2022-08-19T03:37:32;100641.53;;;21.01;69.17
3082;BME280;1551;51.046;7.010;2022-08-19T03:40:21;100640.47;;;20.73;69.67
3082;BME280;1551;51.046;7.010;2022-08-19T03:43:10;100634.47;;;20.55;70.93
3082;BME280;1551;51.046;7.010;2022-08-19T03:46:05;100640.31;;;20.43;70.83
3082;BME280;1551;51.046;7.010;2022-08-19T03:48:56;100629.53;;;20.50;71.39
3082;BME280;1551;51.046;7.010;2022-08-19T03:51:48;100636.81;;;20.44;71.13
3082;BME280;1551;51.046;7.010;2022-08-19T03:54:37;100645.38;;;20.29;71.56
3082;BME280;1551;51.046;7.010;2022-08-19T03:57:27;100642.44;;;20.01;73.01
3082;BME280;1551;51.046;7.010;2022-08-19T04:00:16;100634.13;;;20.11;73.34
3082;BME280;1551;51.046;7.010;2022-08-19T04:03:05;100646.44;;;20.25;72.64
3082;BME280;1551;51.046;7.010;2022-08-19T04:05:54;100650.28;;;20.35;72.10
3082;BME280;1551;51.046;7.010;2022-08-19T04:08:45;100649.72;;;20.28;70.93
3082;BME280;1551;51.046;7.010;2022-08-19T04:11:38;100650.47;;;20.30;72.45
3082;BME280;1551;51.046;7.010;2022-08-19T04:14:31;100648.50;;;20.18;71.62
3082;BME280;1551;51.046;7.010;2022-08-19T04:17:20;100648.81;;;20.29;71.78
3082;BME280;1551;51.046;7.010;2022-08-19T04:20:11;100657.22;;;20.34;72.24
3082;BME280;1551;51.046;7.010;2022-08-19T04:23:00;100663.75;;;20.58;71.29
3082;BME280;1551;51.046;7.010;2022-08-19T04:25:49;100664.00;;;20.20;71.03
3082;BME280;1551;51.046;7.010;2022-08-19T04:28:37;100658.19;;;20.15;73.33
3082;BME280;1551;51.046;7.010;2022-08-19T04:31:29;100656.47;;;20.32;72.23
3082;BME280;1551;51.046;7.010;2022-08-19T04:34:20;100658.25;;;19.96;72.20
3082;BME280;1551;51.046;7.010;2022-08-19T04:37:10;100647.91;;;19.77;72.92
3082;BME280;1551;51.046;7.010;2022-08-19T04:40:00;100661.75;;;19.78;73.33
3082;BME280;1551;51.046;7.010;2022-08-19T04:43:08;100651.38;;;19.78;73.51
3082;BME280;1551;51.046;7.010;2022-08-19T04:46:11;100667.34;;;19.87;73.53
3082;BME280;1551;51.046;7.010;2022-08-19T04:49:01;100666.16;;;19.59;74.51
3082;BME280;1551;51.046;7.010;2022-08-19T04:51:52;100664.28;;;19.97;74.52
3082;BME280;1551;51.046;7.010;2022-08-19T04:54:42;100675.91;;;19.89;73.86
3082;BME280;1551;51.046;7.010;2022-08-19T04:57:31;100679.97;;;20.12;73.46
3082;BME280;1551;51.046;7.010;2022-08-19T05:00:20;100677.56;;;20.26;72.89
3082;BME280;1551;51.046;7.010;2022-08-19T05:03:09;100684.88;;;20.35;72.62
3082;BME280;1551;51.046;7.010;2022-08-19T05:06:11;100688.47;;;20.33;71.48
3082;BME280;1551;51.046;7.010;2022-08-19T05:09:03;100698.50;;;20.40;72.23
3082;BME280;1551;51.046;7.010;2022-08-19T05:11:52;100685.22;;;20.79;71.45
3082;BME280;1551;51.046;7.010;2022-08-19T05:14:42;100694.13;;;21.08;70.23
3082;BME280;1551;51.046;7.010;2022-08-19T05:17:32;100682.16;;;21.21;69.06
3082;BME280;1551;51.046;7.010;2022-08-19T05:20:21;100695.31;;;21.18;68.81
3082;BME280;1551;51.046;7.010;2022-08-19T05:23:29;100697.34;;;21.29;68.94
3082;BME280;1551;51.046;7.010;2022-08-19T05:26:18;100689.00;;;21.06;68.89
3082;BME280;1551;51.046;7.010;2022-08-19T05:29:09;100709.19;;;21.34;68.51
3082;BME280;1551;51.046;7.010;2022-08-19T05:31:58;100713.47;;;21.51;67.79
3082;BME280;1551;51.046;7.010;2022-08-19T05:34:48;100707.84;;;21.58;67.46
3082;BME280;1551;51.046;7.010;2022-08-19T05:37:37;100704.81;;;21.50;67.67
3082;BME280;1551;51.046;7.010;2022-08-19T05:40:29;100704.84;;;21.66;67.23
3082;BME280;1551;51.046;7.010;2022-08-19T05:43:17;100714.38;;;21.81;66.85
3082;BME280;1551;51.046;7.010;2022-08-19T05:46:07;100716.75;;;21.85;66.31
3082;BME280;1551;51.046;7.010;2022-08-19T05:48:56;100718.59;;;21.83;66.96
3082;BME280;1551;51.046;7.010;2022-08-19T05:51:45;100703.22;;;21.95;66.50
3082;BME280;1551;51.046;7.010;2022-08-19T05:54:34;100712.63;;;22.13;66.17
3082;BME280;1551;51.046;7.010;2022-08-19T05:57:26;100708.41;;;22.10;65.95
3082;BME280;1551;51.046;7.010;2022-08-19T06:00:17;100715.66;;;22.05;66.39
3082;BME280;1551;51.046;7.010;2022-08-19T06:03:06;100707.56;;;21.78;67.77
3082;BME280;1551;51.046;7.010;2022-08-19T06:05:55;100701.47;;;21.79;68.01
3082;BME280;1551;51.046;7.010;2022-08-19T06:08:44;100703.91;;;21.98;68.51
3082;BME280;1551;51.046;7.010;2022-08-19T06:11:53;100710.97;;;21.96;68.52
3082;BME280;1551;51.046;7.010;2022-08-19T06:14:42;100698.31;;;22.04;69.39
3082;BME280;1551;51.046;7.010;2022-08-19T06:17:31;100692.28;;;22.04;69.42
3082;BME280;1551;51.046;7.010;2022-08-19T06:20:20;100696.28;;;22.09;69.78
3082;BME280;1551;51.046;7.010;2022-08-19T06:23:09;100697.66;;;22.30;68.99
3082;BME280;1551;51.046;7.010;2022-08-19T06:25:58;100698.03;;;22.24;69.31
3082;BME280;1551;51.046;7.010;2022-08-19T06:28:47;100705.16;;;22.36;69.63
3082;BME280;1551;51.046;7.010;2022-08-19T06:31:41;100700.94;;;22.64;68.30
3082;BME280;1551;51.046;7.010;2022-08-19T06:34:32;100702.78;;;22.62;68.22
3082;BME280;1551;51.046;7.010;2022-08-19T06:37:21;100706.75;;;22.53;69.08
3082;BME280;1551;51.046;7.010;2022-08-19T06:40:11;100703.03;;;22.57;69.64
3082;BME280;1551;51.046;7.010;2022-08-19T06:43:01;100698.53;;;22.45;70.21
3082;BME280;1551;51.046;7.010;2022-08-19T06:45:51;100703.72;;;22.61;70.42
3082;BME280;1551;51.046;7.010;2022-08-19T06:48:40;100689.66;;;22.91;69.16
3082;BME280;1551;51.046;7.010;2022-08-19T06:51:30;100711.00;;;23.12;68.05
3082;BME280;1551;51.046;7.010;2022-08-19T06:54:20;100707.06;;;22.63;69.07
3082;BME280;1551;51.046;7.010;2022-08-19T06:57:10;100715.31;;;22.41;70.84
3082;BME280;1551;51.046;7.010;2022-08-19T07:00:05;100713.06;;;22.65;70.94
3082;BME280;1551;51.046;7.010;2022-08-19T07:02:55;100719.88;;;22.51;71.13
3082;BME280;1551;51.046;7.010;2022-08-19T07:05:44;100715.00;;;22.75;70.67
3082;BME280;1551;51.046;7.010;2022-08-19T07:08:34;100714.28;;;22.87;69.62
3082;BME280;1551;51.046;7.010;2022-08-19T07:11:25;100723.31;;;23.10;69.58
3082;BME280;1551;51.046;7.010;2022-08-19T07:14:16;100723.59;;;23.19;68.69
3082;BME280;1551;51.046;7.010;2022-08-19T07:17:09;100728.97;;;23.31;68.48
3082;BME280;1551;51.046;7.010;2022-08-19T07:19:58;100734.03;;;23.34;67.67
3082;BME280;1551;51.046;7.010;2022-08-19T07:22:47;100744.00;;;23.55;67.80
3082;BME280;1551;51.046;7.010;2022-08-19T07:25:37;100743.00;;;23.84;65.96
3082;BME280;1551;51.046;7.010;2022-08-19T07:28:26;100739.84;;;23.79;65.59
3082;BME280;1551;51.046;7.010;2022-08-19T07:31:18;100755.41;;;23.40;67.25
3082;BME280;1551;51.046;7.010;2022-08-19T07:34:10;100752.50;;;23.45;68.02
3082;BME280;1551;51.046;7.010;2022-08-19T07:37:00;100752.09;;;23.79;66.81
3082;BME280;1551;51.046;7.010;2022-08-19T07:39:51;100761.25;;;23.99;65.62
3082;BME280;1551;51.046;7.010;2022-08-19T07:42:41;100754.50;;;23.82;66.05
3082;BME280;1551;51.046;7.010;2022-08-19T07:45:30;100759.28;;;24.02;65.14
3082;BME280;1551;51.046;7.010;2022-08-19T07:48:20;100770.53;;;23.90;64.95
3082;BME280;1551;51.046;7.010;2022-08-19T07:51:10;100769.06;;;23.86;65.80
3082;BME280;1551;51.046;7.010;2022-08-19T07:54:00;100770.13;;;23.96;65.63
3082;BME280;1551;51.046;7.010;2022-08-19T07:56:49;100776.41;;;24.08;65.04
3082;BME280;1551;51.046;7.010;2022-08-19T07:59:39;100780.63;;;24.23;64.67
3082;BME280;1551;51.046;7.010;2022-08-19T08:02:28;100777.69;;;24.15;64.89
3082;BME280;1551;51.046;7.010;2022-08-19T08:05:17;100784.22;;;24.34;64.50
3082;BME280;1551;51.046;7.010;2022-08-19T08:08:26;100790.88;;;24.65;63.50
3082;BME280;1551;51.046;7.010;2022-08-19T08:11:34;100791.06;;;24.89;62.67
3082;BME280;1551;51.046;7.010;2022-08-19T08:14:26;100797.88;;;25.04;61.84
3082;BME280;1551;51.046;7.010;2022-08-19T08:17:17;100790.94;;;25.28;61.94
3082;BME280;1551;51.046;7.010;2022-08-19T08:20:09;100793.97;;;25.35;60.88
3082;BME280;1551;51.046;7.010;2022-08-19T08:22:59;100801.00;;;25.47;60.32
3082;BME280;1551;51.046;7.010;2022-08-19T08:26:07;100795.03;;;25.19;60.56
3082;BME280;1551;51.046;7.010;2022-08-19T08:28:55;100802.16;;;25.30;59.95
3082;BME280;1551;51.046;7.010;2022-08-19T08:31:45;100793.56;;;25.03;61.89
3082;BME280;1551;51.046;7.010;2022-08-19T08:34:35;100796.19;;;25.15;61.75
3082;BME280;1551;51.046;7.010;2022-08-19T08:37:25;100787.16;;;25.45;61.11
3082;BME280;1551;51.046;7.010;2022-08-19T08:46:15;100796.25;;;25.64;59.64
3082;BME280;1551;51.046;7.010;2022-08-19T08:52:18;100788.91;;;25.69;60.07
3082;BME280;1551;51.046;7.010;2022-08-19T08:55:13;100792.81;;;25.64;60.04
3082;BME280;1551;51.046;7.010;2022-08-19T08:58:06;100791.28;;;25.85;59.67
3082;BME280;1551;51.046;7.010;2022-08-19T09:00:58;100792.91;;;25.62;59.61
3082;BME280;1551;51.046;7.010;2022-08-19T09:03:47;100793.28;;;26.05;59.84
3082;BME280;1551;51.046;7.010;2022-08-19T09:06:38;100790.22;;;26.58;58.03
3082;BME280;1551;51.046;7.010;2022-08-19T09:09:36;100791.06;;;27.05;56.49
3082;BME280;1551;51.046;7.010;2022-08-19T09:13:01;100798.00;;;27.28;56.16
3082;BME280;1551;51.046;7.010;2022-08-19T09:15:49;100789.63;;;27.67;54.61
3082;BME280;1551;51.046;7.010;2022-08-19T09:18:44;100777.09;;;28.14;53.21
3082;BME280;1551;51.046;7.010;2022-08-19T09:21:34;100782.28;;;28.56;51.98
3082;BME280;1551;51.046;7.010;2022-08-19T09:24:23;100779.03;;;28.32;51.73
3082;BME280;1551;51.046;7.010;2022-08-19T09:27:12;100784.41;;;28.10;52.20
3082;BME280;1551;51.046;7.010;2022-08-19T09:30:01;100776.78;;;28.28;51.49
3082;BME280;1551;51.046;7.010;2022-08-19T09:32:50;100778.78;;;28.15;51.73
3082;BME280;1551;51.046;7.010;2022-08-19T09:35:41;100780.88;;;27.67;52.56
3082;BME280;1551;51.046;7.010;2022-08-19T09:38:30;100781.97;;;27.64;52.41
3082;BME280;1551;51.046;7.010;2022-08-19T09:41:23;100781.19;;;27.95;51.59
3082;BME280;1551;51.046;7.010;2022-08-19T09:44:13;100784.19;;;28.34;50.58
3082;BME280;1551;51.046;7.010;2022-08-19T09:47:02;100786.59;;;28.37;49.33
3082;BME280;1551;51.046;7.010;2022-08-19T09:49:52;100789.25;;;28.26;50.25
3082;BME280;1551;51.046;7.010;2022-08-19T09:52:41;100786.59;;;28.37;48.16
3082;BME280;1551;51.046;7.010;2022-08-19T09:55:30;100794.22;;;28.40;46.55
3082;BME280;1551;51.046;7.010;2022-08-19T09:58:20;100786.19;;;28.73;47.33
3082;BME280;1551;51.046;7.010;2022-08-19T10:01:09;100787.44;;;29.20;46.63
3082;BME280;1551;51.046;7.010;2022-08-19T10:03:59;100789.06;;;29.81;44.66
3082;BME280;1551;51.046;7.010;2022-08-19T10:06:50;100788.94;;;29.92;44.55
3082;BME280;1551;51.046;7.010;2022-08-19T10:09:39;100781.88;;;30.50;42.88
3082;BME280;1551;51.046;7.010;2022-08-19T10:12:29;100786.47;;;30.48;42.50
3082;BME280;1551;51.046;7.010;2022-08-19T10:15:19;100788.66;;;30.72;42.26
3082;BME280;1551;51.046;7.010;2022-08-19T10:18:10;100784.81;;;30.47;41.54
3082;BME280;1551;51.046;7.010;2022-08-19T10:21:08;100780.31;;;30.67;40.96
3082;BME280;1551;51.046;7.010;2022-08-19T10:24:00;100776.00;;;30.95;41.02
3082;BME280;1551;51.046;7.010;2022-08-19T10:26:50;100781.00;;;31.35;40.04
3082;BME280;1551;51.046;7.010;2022-08-19T10:29:39;100785.13;;;31.74;38.90
3082;BME280;1551;51.046;7.010;2022-08-19T10:32:28;100792.75;;;32.04;38.41
3082;BME280;1551;51.046;7.010;2022-08-19T10:35:18;100785.41;;;32.51;38.04
3082;BME280;1551;51.046;7.010;2022-08-19T10:38:07;100783.81;;;33.09;37.21
3082;BME280;1551;51.046;7.010;2022-08-19T10:40:56;100777.16;;;32.19;38.70
3082;BME280;1551;51.046;7.010;2022-08-19T10:43:45;100772.00;;;32.78;37.78
3082;BME280;1551;51.046;7.010;2022-08-19T10:46:38;100781.53;;;32.89;37.31
3082;BME280;1551;51.046;7.010;2022-08-19T10:49:30;100776.22;;;31.38;39.35
3082;BME280;1551;51.046;7.010;2022-08-19T10:52:20;100770.75;;;30.56;41.22
3082;BME280;1551;51.046;7.010;2022-08-19T10:55:23;100752.25;;;29.99;42.33
3082;BME280;1551;51.046;7.010;2022-08-19T10:58:31;100758.22;;;29.82;42.97
3082;BME280;1551;51.046;7.010;2022-08-19T11:01:20;100761.13;;;29.79;42.77
3082;BME280;1551;51.046;7.010;2022-08-19T11:04:09;100756.13;;;29.06;43.88
3082;BME280;1551;51.046;7.010;2022-08-19T11:06:59;100761.97;;;30.66;41.70
3082;BME280;1551;51.046;7.010;2022-08-19T11:09:48;100753.13;;;32.55;38.22
3082;BME280;1551;51.046;7.010;2022-08-19T11:12:39;100747.66;;;31.86;38.71
3082;BME280;1551;51.046;7.010;2022-08-19T11:15:29;100758.31;;;32.47;38.14
3082;BME280;1551;51.046;7.010;2022-08-19T11:18:21;100753.13;;;33.49;36.34
3082;BME280;1551;51.046;7.010;2022-08-19T11:21:38;100752.84;;;31.06;39.54
3082;BME280;1551;51.046;7.010;2022-08-19T11:24:28;100754.78;;;30.10;42.14
3082;BME280;1551;51.046;7.010;2022-08-19T11:27:17;100755.84;;;30.65;41.01
3082;BME280;1551;51.046;7.010;2022-08-19T11:30:07;100751.69;;;29.76;42.67
3082;BME280;1551;51.046;7.010;2022-08-19T11:32:56;100743.69;;;28.87;43.98
3082;BME280;1551;51.046;7.010;2022-08-19T11:35:45;100742.06;;;28.54;45.00
3082;BME280;1551;51.046;7.010;2022-08-19T11:38:35;100743.34;;;28.39;45.33
3082;BME280;1551;51.046;7.010;2022-08-19T11:41:25;100736.81;;;28.34;45.86
3082;BME280;1551;51.046;7.010;2022-08-19T11:44:14;100746.38;;;30.63;41.62
3082;BME280;1551;51.046;7.010;2022-08-19T11:47:04;100748.19;;;31.18;39.63
3082;BME280;1551;51.046;7.010;2022-08-19T11:49:53;100743.34;;;31.41;38.91
3082;BME280;1551;51.046;7.010;2022-08-19T11:52:43;100744.31;;;31.40;38.70
3082;BME280;1551;51.046;7.010;2022-08-19T11:55:37;100743.22;;;29.92;41.37
3082;BME280;1551;51.046;7.010;2022-08-19T11:58:27;100746.00;;;29.11;43.41
3082;BME280;1551;51.046;7.010;2022-08-19T12:01:19;100746.13;;;29.79;43.10
3082;BME280;1551;51.046;7.010;2022-08-19T12:04:09;100754.28;;;30.82;40.52
3082;BME280;1551;51.046;7.010;2022-08-19T12:06:58;100740.41;;;30.60;40.51
3082;BME280;1551;51.046;7.010;2022-08-19T12:09:47;100740.41;;;31.16;40.00
3082;BME280;1551;51.046;7.010;2022-08-19T12:12:36;100730.50;;;31.73;38.19
3082;BME280;1551;51.046;7.010;2022-08-19T12:15:28;100737.38;;;30.46;40.20
3082;BME280;1551;51.046;7.010;2022-08-19T12:18:17;100740.59;;;30.11;41.11
3082;BME280;1551;51.046;7.010;2022-08-19T12:21:06;100733.25;;;29.46;42.45
3082;BME280;1551;51.046;7.010;2022-08-19T12:23:58;100738.75;;;29.34;42.23
3082;BME280;1551;51.046;7.010;2022-08-19T12:26:48;100730.38;;;29.19;42.25
3082;BME280;1551;51.046;7.010;2022-08-19T12:29:37;100730.41;;;29.78;41.10
3082;BME280;1551;51.046;7.010;2022-08-19T12:32:26;100730.28;;;30.27;39.75
3082;BME280;1551;51.046;7.010;2022-08-19T12:35:16;100728.03;;;29.65;41.09
3082;BME280;1551;51.046;7.010;2022-08-19T12:38:06;100730.41;;;29.78;40.66
3082;BME280;1551;51.046;7.010;2022-08-19T12:40:55;100725.72;;;30.39;39.25
3082;BME280;1551;51.046;7.010;2022-08-19T12:43:44;100723.84;;;29.53;40.84
3082;BME280;1551;51.046;7.010;2022-08-19T12:46:34;100721.53;;;28.99;41.86
3082;BME280;1551;51.046;7.010;2022-08-19T12:49:23;100714.69;;;28.87;42.40
3082;BME280;1551;51.046;7.010;2022-08-19T12:52:13;100705.00;;;28.88;42.45
3082;BME280;1551;51.046;7.010;2022-08-19T12:55:06;100711.34;;;29.65;40.99
3082;BME280;1551;51.046;7.010;2022-08-19T12:57:56;100707.84;;;29.55;41.06
3082;BME280;1551;51.046;7.010;2022-08-19T13:00:45;100708.06;;;30.01;40.14
3082;BME280;1551;51.046;7.010;2022-08-19T13:03:34;100713.97;;;29.55;40.70
3082;BME280;1551;51.046;7.010;2022-08-19T13:06:24;100709.16;;;29.20;41.94
3082;BME280;1551;51.046;7.010;2022-08-19T13:09:13;100703.97;;;29.49;41.10
3082;BME280;1551;51.046;7.010;2022-08-19T13:12:02;100692.34;;;30.28;40.05
3082;BME280;1551;51.046;7.010;2022-08-19T13:14:56;100696.19;;;30.63;38.63
3082;BME280;1551;51.046;7.010;2022-08-19T13:17:45;100689.75;;;31.39;37.86
3082;BME280;1551;51.046;7.010;2022-08-19T13:20:37;100692.50;;;31.47;37.26
3082;BME280;1551;51.046;7.010;2022-08-19T13:23:26;100687.56;;;30.60;38.62
3082;BME280;1551;51.046;7.010;2022-08-19T13:26:16;100681.69;;;31.13;37.98
3082;BME280;1551;51.046;7.010;2022-08-19T13:29:05;100684.25;;;31.50;37.31
3082;BME280;1551;51.046;7.010;2022-08-19T13:32:13;100687.63;;;31.42;36.83
3082;BME280;1551;51.046;7.010;2022-08-19T13:35:21;100688.72;;;31.22;37.20
3082;BME280;1551;51.046;7.010;2022-08-19T13:38:11;100678.47;;;31.37;37.18
3082;BME280;1551;51.046;7.010;2022-08-19T13:41:05;100672.41;;;31.26;36.95
3082;BME280;1551;51.046;7.010;2022-08-19T13:43:54;100677.38;;;31.92;35.72
3082;BME280;1551;51.046;7.010;2022-08-19T13:46:44;100672.53;;;32.23;35.07
3082;BME280;1551;51.046;7.010;2022-08-19T13:49:34;100676.59;;;32.35;34.17
3082;BME280;1551;51.046;7.010;2022-08-19T13:52:25;100678.06;;;31.94;34.70
3082;BME280;1551;51.046;7.010;2022-08-19T13:55:15;100669.81;;;31.79;34.11
3082;BME280;1551;51.046;7.010;2022-08-19T13:58:04;100657.50;;;31.70;34.35
3082;BME280;1551;51.046;7.010;2022-08-19T14:00:53;100663.78;;;31.69;34.81
3082;BME280;1551;51.046;7.010;2022-08-19T14:03:42;100657.41;;;31.80;34.77
3082;BME280;1551;51.046;7.010;2022-08-19T14:06:33;100665.06;;;31.83;34.04
3082;BME280;1551;51.046;7.010;2022-08-19T14:09:22;100653.81;;;31.46;35.01
3082;BME280;1551;51.046;7.010;2022-08-19T14:12:11;100655.78;;;31.44;34.69
3082;BME280;1551;51.046;7.010;2022-08-19T14:15:01;100656.00;;;31.50;34.52
3082;BME280;1551;51.046;7.010;2022-08-19T14:17:52;100649.13;;;31.57;34.43
3082;BME280;1551;51.046;7.010;2022-08-19T14:20:42;100655.00;;;31.69;33.31
3082;BME280;1551;51.046;7.010;2022-08-19T14:23:32;100660.75;;;31.64;33.88
3082;BME280;1551;51.046;7.010;2022-08-19T14:26:22;100666.06;;;31.37;34.59
3082;BME280;1551;51.046;7.010;2022-08-19T14:29:11;100658.91;;;31.30;34.67
3082;BME280;1551;51.046;7.010;2022-08-19T14:32:01;100663.34;;;31.29;35.21
3082;BME280;1551;51.046;7.010;2022-08-19T14:34:50;100674.84;;;31.38;35.04
3082;BME280;1551;51.046;7.010;2022-08-19T14:37:41;100668.41;;;31.40;35.05
3082;BME280;1551;51.046;7.010;2022-08-19T14:40:31;100667.41;;;31.23;34.63
3082;BME280;1551;51.046;7.010;2022-08-19T14:43:20;100667.00;;;31.01;34.58
3082;BME280;1551;51.046;7.010;2022-08-19T14:46:10;100669.75;;;31.26;34.82
3082;BME280;1551;51.046;7.010;2022-08-19T14:49:01;100678.22;;;31.57;34.67
3082;BME280;1551;51.046;7.010;2022-08-19T14:51:51;100673.28;;;31.45;34.10
3082;BME280;1551;51.046;7.010;2022-08-19T14:54:40;100673.78;;;31.58;33.64
3082;BME280;1551;51.046;7.010;2022-08-19T14:57:29;100675.16;;;31.35;33.91
3082;BME280;1551;51.046;7.010;2022-08-19T15:00:18;100672.84;;;30.48;34.53
3082;BME280;1551;51.046;7.010;2022-08-19T15:03:06;100671.72;;;30.51;34.65
3082;BME280;1551;51.046;7.010;2022-08-19T15:05:56;100672.72;;;30.50;35.57
3082;BME280;1551;51.046;7.010;2022-08-19T15:08:46;100671.91;;;30.40;35.43
3082;BME280;1551;51.046;7.010;2022-08-19T15:11:36;100666.88;;;30.46;35.30
3082;BME280;1551;51.046;7.010;2022-08-19T15:14:26;100673.19;;;30.36;35.06
3082;BME280;1551;51.046;7.010;2022-08-19T15:17:16;100672.19;;;30.18;35.87
3082;BME280;1551;51.046;7.010;2022-08-19T15:20:07;100680.41;;;30.05;35.74
3082;BME280;1551;51.046;7.010;2022-08-19T15:22:56;100686.94;;;30.01;36.04
3082;BME280;1551;51.046;7.010;2022-08-19T15:25:48;100688.34;;;29.96;35.81